createdAt,value
2023-04-10T00:02:26.296Z,1.09
2023-04-10T00:04:53.333Z,1.22
2023-04-10T00:07:20.551Z,1.24
2023-04-10T00:09:48.054Z,1.32
2023-04-10T00:12:15.606Z,1.23
2023-04-10T00:14:42.497Z,1.18
2023-04-10T00:17:09.230Z,1.26
2023-04-10T00:19:36.368Z,1.21
2023-04-10T00:22:03.064Z,1.05
2023-04-10T00:24:30.379Z,0.92
2023-04-10T00:26:57.570Z,0.99
2023-04-10T00:29:24.784Z,0.99
2023-04-10T00:31:51.444Z,1.00
2023-04-10T00:34:18.468Z,0.88
2023-04-10T00:36:46.841Z,0.76
2023-04-10T00:39:14.351Z,0.71
2023-04-10T00:41:41.075Z,0.70
2023-04-10T00:44:08.497Z,0.69
2023-04-10T00:46:37.474Z,0.72
2023-04-10T00:49:04.869Z,0.67
2023-04-10T00:51:31.896Z,0.58
2023-04-10T00:54:00.321Z,0.67
2023-04-10T00:56:26.973Z,0.65
2023-04-10T00:58:53.702Z,0.58
2023-04-10T01:01:21.035Z,0.60
2023-04-10T01:03:47.816Z,0.55
2023-04-10T01:06:42.326Z,0.53
2023-04-10T01:09:18.135Z,0.53
2023-04-10T01:12:11.354Z,0.62
2023-04-10T01:14:55.987Z,0.44
2023-04-10T01:17:42.218Z,0.44
2023-04-10T01:20:32.971Z,0.45
2023-04-10T01:23:20.737Z,0.44
2023-04-10T01:26:07.652Z,0.43
2023-04-10T01:28:57.078Z,0.49
2023-04-10T01:31:53.625Z,0.39
2023-04-10T01:34:26.916Z,0.38
2023-04-10T01:37:00.721Z,0.26
2023-04-10T01:39:28.557Z,0.23
2023-04-10T01:41:56.677Z,0.18
2023-04-10T01:44:30.031Z,0.14
2023-04-10T01:46:58.040Z,0.07
2023-04-10T01:49:26.855Z,0.11
2023-04-10T01:51:58.215Z,0.17
2023-04-10T01:54:28.386Z,0.08
2023-04-10T01:56:56.749Z,0.16
2023-04-10T01:59:23.790Z,0.19
2023-04-10T02:01:58.829Z,0.12
2023-04-10T02:04:26.802Z,0.17
2023-04-10T02:07:04.834Z,0.16
2023-04-10T02:09:45.310Z,0.03
2023-04-10T02:12:47.075Z,0.05
2023-04-10T02:15:14.459Z,0.04
2023-04-10T02:17:42.839Z,0.04
2023-04-10T02:20:10.817Z,0.06
2023-04-10T02:22:37.770Z,0.11
2023-04-10T02:25:04.953Z,0.01
2023-04-10T02:27:33.266Z,-0.06
2023-04-10T02:30:00.472Z,-0.15
2023-04-10T02:32:27.507Z,-0.19
2023-04-10T02:34:54.250Z,-0.18
2023-04-10T02:37:21.266Z,-0.23
2023-04-10T02:39:48.497Z,-0.24
2023-04-10T02:42:15.284Z,-0.15
2023-04-10T02:44:41.854Z,-0.22
2023-04-10T02:47:08.546Z,-0.35
2023-04-10T02:49:35.373Z,-0.40
2023-04-10T02:52:02.399Z,-0.38
2023-04-10T02:54:29.179Z,-0.44
2023-04-10T02:56:57.517Z,-0.45
2023-04-10T02:59:24.361Z,-0.47
2023-04-10T03:01:52.447Z,-0.45
2023-04-10T03:04:19.706Z,-0.44
2023-04-10T03:06:46.814Z,-0.42
2023-04-10T03:09:13.712Z,-0.50
2023-04-10T03:11:40.624Z,-0.58
2023-04-10T03:14:09.773Z,-0.64
2023-04-10T03:16:36.738Z,-0.63
2023-04-10T03:19:03.608Z,-0.53
2023-04-10T03:21:30.252Z,-0.45
2023-04-10T03:23:56.984Z,-0.56
2023-04-10T03:26:24.136Z,-0.65
2023-04-10T03:28:50.994Z,-0.75
2023-04-10T03:31:18.001Z,-0.80
2023-04-10T03:33:44.849Z,-0.72
2023-04-10T03:36:11.712Z,-0.61
2023-04-10T03:38:38.446Z,-0.70
2023-04-10T03:41:05.507Z,-0.73
2023-04-10T03:43:32.179Z,-0.83
2023-04-10T03:45:58.880Z,-0.81
2023-04-10T03:48:28.285Z,-0.79
2023-04-10T03:50:56.521Z,-0.78
2023-04-10T03:53:23.670Z,-0.86
2023-04-10T03:55:52.410Z,-0.83
2023-04-10T03:58:19.310Z,-0.82
2023-04-10T04:00:46.744Z,-0.95
2023-04-10T04:03:13.839Z,-0.99
2023-04-10T04:05:40.815Z,-1.07
2023-04-10T04:08:07.501Z,-1.06
2023-04-10T04:10:34.130Z,-1.02
2023-04-10T04:13:01.573Z,-0.98
2023-04-10T04:15:28.295Z,-0.90
2023-04-10T04:17:55.065Z,-0.96
2023-04-10T04:20:21.764Z,-1.04
2023-04-10T04:22:48.463Z,-0.99
2023-04-10T04:25:15.641Z,-0.86
2023-04-10T04:27:42.384Z,-0.90
2023-04-10T04:30:09.440Z,-1.00
2023-04-10T04:32:36.156Z,-0.97
2023-04-10T04:35:02.989Z,-0.89
2023-04-10T04:37:29.722Z,-0.97
2023-04-10T04:39:56.400Z,-1.05
2023-04-10T04:42:23.068Z,-1.05
2023-04-10T04:44:49.754Z,-0.97
2023-04-10T04:47:17.192Z,-0.85
2023-04-10T04:49:43.936Z,-0.97
2023-04-10T04:52:10.927Z,-1.05
2023-04-10T04:54:37.577Z,-1.09
2023-04-10T04:57:04.243Z,-1.10
2023-04-10T04:59:30.908Z,-1.05
2023-04-10T05:01:58.140Z,-1.00
2023-04-10T05:04:25.141Z,-1.04
2023-04-10T05:06:52.198Z,-0.96
2023-04-10T05:09:19.257Z,-0.88
2023-04-10T05:11:46.005Z,-0.84
2023-04-10T05:14:12.658Z,-0.87
2023-04-10T05:16:39.329Z,-0.86
2023-04-10T05:19:06.349Z,-0.83
2023-04-10T05:21:33.283Z,-0.77
2023-04-10T05:24:00.344Z,-0.73
2023-04-10T05:26:27.372Z,-0.62
2023-04-10T05:28:54.159Z,-0.54
2023-04-10T05:31:21.278Z,-0.48
2023-04-10T05:33:49.279Z,-0.37
2023-04-10T05:36:18.186Z,-0.30
2023-04-10T05:38:44.893Z,-0.39
2023-04-10T05:41:11.552Z,-0.44
2023-04-10T05:43:38.226Z,-0.49
2023-04-10T05:46:05.060Z,-0.44
2023-04-10T05:48:31.702Z,-0.42
2023-04-10T05:50:58.418Z,-0.32
2023-04-10T05:53:31.288Z,-0.21
2023-04-10T05:55:59.529Z,-0.14
2023-04-10T05:58:27.025Z,-0.04
2023-04-10T06:00:53.629Z,-0.07
2023-04-10T06:03:20.697Z,-0.02
2023-04-10T06:05:47.523Z,0.24
2023-04-10T06:08:14.290Z,0.36
2023-04-10T06:10:41.096Z,0.26
2023-04-10T06:13:10.592Z,0.36
2023-04-10T06:15:38.236Z,0.40
2023-04-10T06:18:05.349Z,0.50
2023-04-10T06:20:32.169Z,0.49
2023-04-10T06:22:59.460Z,0.69
2023-04-10T06:25:26.603Z,1.46
2023-04-10T06:27:53.489Z,2.22
2023-04-10T06:30:20.932Z,3.37
2023-04-10T06:32:47.871Z,4.39
2023-04-10T06:35:14.690Z,4.87
2023-04-10T06:37:42.564Z,5.67
2023-04-10T06:40:13.788Z,6.23
2023-04-10T06:42:41.698Z,6.74
2023-04-10T06:45:09.093Z,7.36
2023-04-10T06:47:36.058Z,8.45
2023-04-10T06:50:03.532Z,8.70
2023-04-10T06:52:30.907Z,9.03
2023-04-10T06:54:57.653Z,9.95
2023-04-10T06:57:24.497Z,10.05
2023-04-10T06:59:51.430Z,10.35
2023-04-10T07:02:18.199Z,10.79
2023-04-10T07:04:44.987Z,10.88
2023-04-10T07:07:13.361Z,10.67
2023-04-10T07:09:40.359Z,10.95
2023-04-10T07:12:07.684Z,10.66
2023-04-10T07:14:37.503Z,10.82
2023-04-10T07:17:04.378Z,11.09
2023-04-10T07:19:31.450Z,11.22
2023-04-10T07:21:58.152Z,11.40
2023-04-10T07:24:25.062Z,11.63
2023-04-10T07:26:52.585Z,11.92
2023-04-10T07:29:20.581Z,11.75
2023-04-10T07:31:47.277Z,11.69
2023-04-10T07:34:14.058Z,11.76
2023-04-10T07:36:40.865Z,12.06
2023-04-10T07:39:07.655Z,11.87
2023-04-10T07:41:35.299Z,11.80
2023-04-10T07:44:02.371Z,11.61
2023-04-10T07:46:29.165Z,11.54
2023-04-10T07:48:56.176Z,11.42
2023-04-10T07:51:23.102Z,11.35
2023-04-10T07:53:49.803Z,11.31
2023-04-10T07:56:17.901Z,11.14
2023-04-10T07:58:45.041Z,11.19
2023-04-10T08:01:11.895Z,11.02
2023-04-10T08:03:45.067Z,11.23
2023-04-10T08:06:12.215Z,11.17
2023-04-10T08:08:40.827Z,11.26
2023-04-10T08:11:28.705Z,11.11
2023-04-10T08:13:58.130Z,10.50
2023-04-10T08:16:26.109Z,10.75
2023-04-10T08:18:53.857Z,10.72
2023-04-10T08:21:22.374Z,10.89
2023-04-10T08:23:53.805Z,11.02
2023-04-10T08:26:21.357Z,11.04
2023-04-10T08:28:50.180Z,11.03
2023-04-10T08:31:17.856Z,11.11
2023-04-10T08:33:44.686Z,11.21
2023-04-10T08:36:12.828Z,11.20
2023-04-10T08:38:39.828Z,11.43
2023-04-10T08:41:06.627Z,11.33
2023-04-10T08:43:34.662Z,11.51
2023-04-10T08:46:01.839Z,11.75
2023-04-10T08:48:52.972Z,11.84
2023-04-10T08:51:26.224Z,12.05
2023-04-10T08:53:58.758Z,12.06
2023-04-10T08:56:26.064Z,12.25
2023-04-10T08:58:53.294Z,12.49
2023-04-10T09:01:21.400Z,12.67
2023-04-10T09:03:48.517Z,12.98
2023-04-10T09:06:15.393Z,13.20
2023-04-10T09:08:42.158Z,13.42
2023-04-10T09:11:09.083Z,13.59
2023-04-10T09:13:39.750Z,13.78
2023-04-10T09:16:07.141Z,14.03
2023-04-10T09:18:42.619Z,14.32
2023-04-10T09:21:11.100Z,14.57
2023-04-10T09:23:37.752Z,14.69
2023-04-10T09:26:25.949Z,15.00
2023-04-10T09:29:03.496Z,15.07
2023-04-10T09:31:32.278Z,15.04
2023-04-10T09:34:13.016Z,15.08
2023-04-10T09:36:43.726Z,15.23
2023-04-10T09:39:11.911Z,15.13
2023-04-10T09:41:55.021Z,15.50
2023-04-10T09:44:33.122Z,15.56
2023-04-10T09:47:15.468Z,15.22
2023-04-10T09:49:56.000Z,14.97
2023-04-10T09:52:31.133Z,15.32
2023-04-10T09:55:00.370Z,15.72
2023-04-10T09:57:32.808Z,16.17
2023-04-10T10:00:05.539Z,16.51
2023-04-10T10:02:37.479Z,16.70
2023-04-10T10:05:06.182Z,16.72
2023-04-10T10:07:33.322Z,16.75
2023-04-10T10:10:01.067Z,16.50
2023-04-10T10:12:50.640Z,16.75
2023-04-10T10:15:20.978Z,16.53
2023-04-10T10:17:54.458Z,17.00
2023-04-10T10:20:24.429Z,17.09
2023-04-10T10:22:51.918Z,17.12
2023-04-10T10:25:20.154Z,16.90
2023-04-10T10:27:49.847Z,16.79
2023-04-10T10:30:28.797Z,17.07
2023-04-10T10:32:56.890Z,16.87
2023-04-10T10:35:29.580Z,16.97
2023-04-10T10:37:59.782Z,17.23
2023-04-10T10:40:33.092Z,17.36
2023-04-10T10:43:33.376Z,17.51
2023-04-10T10:46:05.081Z,17.81
2023-04-10T10:48:32.101Z,17.52
2023-04-10T10:51:07.669Z,17.05
2023-04-10T10:53:37.063Z,17.00
2023-04-10T10:56:26.949Z,16.87
2023-04-10T10:58:56.498Z,16.46
2023-04-10T11:01:23.849Z,16.92
2023-04-10T11:03:51.181Z,17.15
2023-04-10T11:06:21.746Z,17.51
2023-04-10T11:08:55.367Z,17.46
2023-04-10T11:11:27.896Z,17.33
2023-04-10T11:13:57.580Z,17.43
2023-04-10T11:16:42.018Z,17.72
2023-04-10T11:19:16.286Z,17.70
2023-04-10T11:22:09.155Z,17.62
2023-04-10T11:24:57.659Z,17.56
2023-04-10T11:27:52.850Z,17.44
2023-04-10T11:30:27.105Z,17.38
2023-04-10T11:32:54.895Z,17.47
2023-04-10T11:35:22.357Z,17.67
2023-04-10T11:37:53.028Z,17.73
2023-04-10T11:40:19.809Z,18.06
2023-04-10T11:42:48.150Z,18.20
2023-04-10T11:45:23.862Z,18.28
2023-04-10T11:47:54.704Z,17.79
2023-04-10T11:50:21.684Z,17.98
2023-04-10T11:52:51.826Z,18.28
2023-04-10T11:55:19.190Z,17.91
2023-04-10T11:57:46.340Z,18.38
2023-04-10T12:00:24.331Z,18.73
2023-04-10T12:02:55.653Z,18.60
2023-04-10T12:05:24.447Z,18.33
2023-04-10T12:07:51.721Z,18.12
2023-04-10T12:10:18.456Z,18.30
2023-04-10T12:12:45.160Z,17.82
2023-04-10T12:15:28.734Z,17.82
2023-04-10T12:17:55.778Z,17.93
2023-04-10T12:20:26.562Z,18.06
2023-04-10T12:22:56.314Z,17.80
2023-04-10T12:25:23.057Z,17.92
2023-04-10T12:27:52.640Z,18.14
2023-04-10T12:30:19.427Z,18.43
2023-04-10T12:32:52.430Z,18.45
2023-04-10T12:35:19.263Z,18.65
2023-04-10T12:37:52.792Z,18.76
2023-04-10T12:40:20.752Z,17.77
2023-04-10T12:42:47.625Z,18.10
2023-04-10T12:45:15.547Z,18.33
2023-04-10T12:47:47.972Z,18.43
2023-04-10T12:50:20.774Z,18.27
2023-04-10T12:53:05.123Z,17.55
2023-04-10T12:55:32.379Z,17.68
2023-04-10T12:58:16.450Z,17.95
2023-04-10T13:00:43.185Z,18.09
2023-04-10T13:03:10.001Z,17.88
2023-04-10T13:05:36.907Z,17.78
2023-04-10T13:08:03.785Z,17.77
2023-04-10T13:10:30.774Z,17.85
2023-04-10T13:12:57.622Z,18.01
2023-04-10T13:15:24.547Z,17.80
2023-04-10T13:17:51.346Z,17.63
2023-04-10T13:20:18.235Z,17.68
2023-04-10T13:22:45.545Z,17.49
2023-04-10T13:25:12.457Z,17.44
2023-04-10T13:27:39.297Z,17.42
2023-04-10T13:30:06.622Z,17.43
2023-04-10T13:32:33.369Z,17.42
2023-04-10T13:35:00.145Z,17.53
2023-04-10T13:37:26.942Z,17.48
2023-04-10T13:39:53.728Z,17.43
2023-04-10T13:42:20.755Z,17.34
2023-04-10T13:44:47.549Z,17.37
2023-04-10T13:47:14.520Z,17.35
2023-04-10T13:49:41.274Z,17.16
2023-04-10T13:52:09.123Z,16.96
2023-04-10T13:54:35.859Z,16.93
2023-04-10T13:57:03.019Z,16.98
2023-04-10T13:59:29.949Z,16.95
2023-04-10T14:01:56.721Z,17.01
2023-04-10T14:04:23.470Z,16.96
2023-04-10T14:06:52.029Z,17.04
2023-04-10T14:09:19.058Z,17.01
2023-04-10T14:11:45.911Z,16.94
2023-04-10T14:14:14.073Z,16.88
2023-04-10T14:16:40.952Z,16.87
2023-04-10T14:19:07.738Z,16.27
2023-04-10T14:21:34.398Z,16.33
2023-04-10T14:24:01.402Z,16.52
2023-04-10T14:26:28.218Z,16.60
2023-04-10T14:28:55.405Z,16.79
2023-04-10T14:31:22.333Z,16.81
2023-04-10T14:33:49.454Z,16.86
2023-04-10T14:36:16.334Z,16.98
2023-04-10T14:38:43.168Z,16.86
2023-04-10T14:41:10.173Z,16.96
2023-04-10T14:43:37.730Z,17.07
2023-04-10T14:46:04.719Z,16.69
2023-04-10T14:48:31.540Z,16.69
2023-04-10T14:50:59.163Z,16.91
2023-04-10T14:53:25.973Z,17.05
2023-04-10T14:55:52.679Z,17.06
2023-04-10T14:58:19.728Z,16.96
2023-04-10T15:00:47.105Z,17.07
2023-04-10T15:03:14.091Z,17.19
2023-04-10T15:05:40.996Z,17.20
2023-04-10T15:08:07.994Z,17.14
2023-04-10T15:10:34.739Z,17.05
2023-04-10T15:13:01.545Z,16.91
2023-04-10T15:15:31.160Z,16.78
2023-04-10T15:18:04.020Z,16.73
2023-04-10T15:20:31.071Z,16.51
2023-04-10T15:28:49.836Z,16.35
2023-04-10T15:31:16.982Z,16.33
2023-04-10T15:33:43.867Z,16.31
2023-04-10T15:36:13.296Z,16.41
2023-04-10T15:38:40.112Z,16.53
2023-04-10T15:41:13.495Z,16.67
2023-04-10T15:43:40.408Z,16.61
2023-04-10T15:46:07.186Z,16.72
2023-04-10T15:48:34.118Z,16.72
2023-04-10T15:51:05.496Z,16.51
2023-04-10T15:53:35.112Z,16.62
2023-04-10T15:56:04.772Z,16.50
2023-04-10T15:58:34.087Z,16.32
2023-04-10T16:01:01.155Z,16.23
2023-04-10T16:03:30.235Z,16.12
2023-04-10T16:05:58.445Z,15.93
2023-04-10T16:08:26.242Z,15.68
2023-04-10T16:10:55.166Z,15.53
2023-04-10T16:13:21.921Z,15.47
2023-04-10T16:15:49.192Z,15.51
2023-04-10T16:18:15.882Z,15.50
2023-04-10T16:20:42.512Z,15.49
2023-04-10T16:23:09.139Z,15.45
2023-04-10T16:25:35.931Z,15.40
2023-04-10T16:28:02.797Z,15.25
2023-04-10T16:30:29.454Z,15.23
2023-04-10T16:32:56.176Z,15.19
2023-04-10T16:35:27.049Z,15.05
2023-04-10T16:37:55.019Z,14.93
2023-04-10T16:40:21.997Z,14.93
2023-04-10T16:42:48.652Z,14.91
2023-04-10T16:45:15.480Z,14.83
2023-04-10T16:47:44.595Z,14.74
2023-04-10T16:50:11.525Z,14.61
2023-04-10T16:52:38.282Z,14.57
2023-04-10T16:55:05.310Z,14.42
2023-04-10T16:57:32.166Z,14.53
2023-04-10T16:59:59.237Z,14.52
2023-04-10T17:02:26.560Z,14.46
2023-04-10T17:04:59.223Z,14.34
2023-04-10T17:07:25.935Z,14.28
2023-04-10T17:09:52.860Z,14.34
2023-04-10T17:12:19.589Z,14.09
2023-04-10T17:14:46.251Z,14.07
2023-04-10T17:17:13.087Z,13.96
2023-04-10T17:19:39.828Z,13.88
2023-04-10T17:22:15.434Z,13.81
2023-04-10T17:24:43.513Z,13.79
2023-04-10T17:27:10.302Z,13.77
2023-04-10T17:29:40.031Z,13.56
2023-04-10T17:32:08.709Z,13.46
2023-04-10T17:34:35.608Z,13.38
2023-04-10T17:37:02.491Z,13.35
2023-04-10T17:39:29.192Z,13.20
2023-04-10T17:41:56.929Z,13.09
2023-04-10T17:44:23.747Z,13.12
2023-04-10T17:46:50.577Z,13.01
2023-04-10T17:49:20.922Z,12.89
2023-04-10T17:51:48.020Z,12.81
2023-04-10T17:54:14.769Z,12.72
2023-04-10T17:56:42.490Z,12.60
2023-04-10T17:59:09.230Z,12.52
2023-04-10T18:01:36.038Z,12.43
2023-04-10T18:04:03.377Z,12.32
2023-04-10T18:06:30.299Z,12.28
2023-04-10T18:08:57.372Z,12.24
2023-04-10T18:11:24.257Z,12.22
2023-04-10T18:13:51.120Z,12.15
2023-04-10T18:16:17.983Z,12.11
2023-04-10T18:18:44.744Z,11.99
2023-04-10T18:21:12.265Z,11.81
2023-04-10T18:23:40.081Z,11.84
2023-04-10T18:26:06.957Z,11.70
2023-04-10T18:28:33.587Z,11.47
2023-04-10T18:31:00.865Z,11.59
2023-04-10T18:33:27.684Z,11.59
2023-04-10T18:35:59.008Z,11.40
2023-04-10T18:38:26.397Z,11.33
2023-04-10T18:41:02.136Z,11.19
2023-04-10T18:43:28.896Z,11.27
2023-04-10T18:45:55.868Z,11.26
2023-04-10T18:48:22.771Z,11.09
2023-04-10T18:50:56.090Z,11.03
2023-04-10T18:53:23.165Z,10.88
2023-04-10T18:55:51.553Z,10.74
2023-04-10T18:58:19.684Z,10.81
2023-04-10T19:00:46.516Z,10.63
2023-04-10T19:03:14.278Z,10.56
2023-04-10T19:05:44.509Z,10.57
2023-04-10T19:08:14.680Z,10.46
2023-04-10T19:10:42.470Z,10.40
2023-04-10T19:13:09.807Z,10.47
2023-04-10T19:15:41.486Z,10.39
2023-04-10T19:18:08.917Z,10.34
2023-04-10T19:20:49.756Z,10.39
2023-04-10T19:23:18.712Z,10.52
2023-04-10T19:25:45.485Z,10.40
2023-04-10T19:28:12.257Z,10.38
2023-04-10T19:30:38.960Z,10.28
2023-04-10T19:33:05.726Z,10.38
2023-04-10T19:35:34.991Z,10.34
2023-04-10T19:38:01.686Z,10.53
2023-04-10T19:40:31.697Z,10.59
2023-04-10T19:43:00.372Z,10.61
2023-04-10T19:45:30.084Z,10.71
2023-04-10T19:47:56.950Z,10.76
2023-04-10T19:50:23.884Z,10.86
2023-04-10T19:52:51.482Z,10.81
2023-04-10T19:55:19.142Z,10.82
2023-04-10T19:57:46.099Z,10.91
2023-04-10T20:00:13.305Z,10.85
2023-04-10T20:02:40.411Z,10.84
2023-04-10T20:05:07.634Z,10.68
2023-04-10T20:07:34.287Z,10.75
2023-04-10T20:10:04.285Z,10.66
2023-04-10T20:12:33.213Z,10.66
2023-04-10T20:15:04.513Z,10.68
2023-04-10T20:17:31.512Z,10.76
2023-04-10T20:19:58.328Z,10.74
2023-04-10T20:22:25.455Z,10.80
2023-04-10T20:24:58.260Z,10.88
2023-04-10T20:27:26.114Z,10.83
2023-04-10T20:29:52.990Z,10.88
2023-04-10T20:32:19.784Z,10.91
2023-04-10T20:34:46.570Z,10.79
2023-04-10T20:37:17.366Z,10.85
2023-04-10T20:39:44.163Z,10.84
2023-04-10T20:42:11.017Z,10.75
2023-04-10T20:44:38.563Z,10.68
2023-04-10T20:47:06.331Z,10.79
2023-04-10T20:49:33.385Z,10.65
2023-04-10T20:52:00.102Z,10.79
2023-04-10T20:54:27.267Z,10.77
2023-04-10T20:56:54.071Z,10.69
2023-04-10T20:59:22.933Z,10.77
2023-04-10T21:01:49.758Z,10.65
2023-04-10T21:04:22.477Z,10.69
2023-04-10T21:06:51.453Z,10.70
2023-04-10T21:09:18.129Z,10.77
2023-04-10T21:11:46.645Z,10.68
2023-04-10T21:14:13.508Z,10.54
2023-04-10T21:16:42.486Z,10.66
2023-04-10T21:19:11.452Z,10.67
2023-04-10T21:21:42.630Z,10.64
2023-04-10T21:24:11.393Z,10.63
2023-04-10T21:26:39.168Z,10.57
2023-04-10T21:29:05.839Z,10.70
2023-04-10T21:31:32.482Z,10.68
2023-04-10T21:33:59.162Z,10.66
2023-04-10T21:36:26.589Z,10.62
2023-04-10T21:38:53.534Z,10.52
2023-04-10T21:41:23.196Z,10.44
2023-04-10T21:43:49.839Z,10.47
2023-04-10T21:46:21.394Z,10.43
2023-04-10T21:48:50.204Z,10.33
2023-04-10T21:51:17.092Z,10.37
2023-04-10T21:53:43.744Z,10.40
2023-04-10T21:56:10.733Z,10.40
2023-04-10T21:58:40.423Z,10.44
2023-04-10T22:01:08.114Z,10.46
2023-04-10T22:03:35.694Z,10.46
2023-04-10T22:06:02.599Z,10.40
2023-04-10T22:08:29.251Z,10.53
2023-04-10T22:10:58.246Z,10.58
2023-04-10T22:13:30.963Z,10.57
2023-04-10T22:15:59.568Z,10.59
2023-04-10T22:18:29.766Z,10.51
2023-04-10T22:20:57.729Z,10.52
2023-04-10T22:23:24.437Z,10.51
2023-04-10T22:25:51.082Z,10.53
2023-04-10T22:28:17.692Z,10.50
2023-04-10T22:30:44.460Z,10.50
2023-04-10T22:33:12.059Z,10.52
2023-04-10T22:35:41.081Z,10.42
2023-04-10T22:38:08.335Z,10.44
2023-04-10T22:40:35.758Z,10.52
2023-04-10T22:43:02.481Z,10.46
2023-04-10T22:45:29.651Z,10.50
2023-04-10T22:47:56.352Z,10.48
2023-04-10T22:50:26.128Z,10.47
2023-04-10T22:52:56.417Z,10.45
2023-04-10T22:55:23.002Z,10.51
2023-04-10T22:57:49.660Z,10.41
2023-04-10T23:00:16.791Z,10.35
2023-04-10T23:02:46.562Z,10.50
2023-04-10T23:05:18.947Z,10.38
2023-04-10T23:07:50.505Z,10.43
2023-04-10T23:10:17.335Z,10.46
2023-04-10T23:12:45.827Z,10.49
2023-04-10T23:15:12.691Z,10.45
2023-04-10T23:17:39.377Z,10.57
2023-04-10T23:20:06.635Z,10.54
2023-04-10T23:22:33.239Z,10.44
2023-04-10T23:25:01.390Z,10.50
2023-04-10T23:27:29.220Z,10.43
2023-04-10T23:29:59.780Z,10.34
2023-04-10T23:32:28.758Z,10.46
2023-04-10T23:34:58.885Z,10.39
2023-04-10T23:37:26.459Z,10.47
2023-04-10T23:39:53.265Z,10.46
2023-04-10T23:42:22.930Z,10.48
2023-04-10T23:44:49.556Z,10.45
2023-04-10T23:47:18.481Z,10.41
2023-04-10T23:49:45.199Z,10.40
2023-04-10T23:52:12.167Z,10.45
2023-04-10T23:54:38.836Z,10.42
2023-04-10T23:57:05.982Z,10.32
2023-04-10T23:59:32.611Z,10.32
